sensor_id;sensor_type;location;lat;lon;timestamp;P1;durP1;ratioP1;P2;durP2;ratioP2
47523;SDS011;33253;42.144;25.884;2022-08-18T08:15:39;5.65;;;4.35;;
47523;SDS011;33253;42.144;25.884;2022-08-18T08:20:54;6.07;;;4.07;;
47523;SDS011;33253;42.144;25.884;2022-08-18T08:32:15;9.82;;;4.47;;
47523;SDS011;33253;42.144;25.884;2022-08-18T08:35:05;11.85;;;4.65;;
47523;SDS011;33253;42.144;25.884;2022-08-18T08:42:49;9.43;;;4.47;;
47523;SDS011;33253;42.144;25.884;2022-08-18T08:45:27;8.55;;;4.70;;
47523;SDS011;33253;42.144;25.884;2022-08-18T08:50:49;6.05;;;4.00;;
47523;SDS011;33253;42.144;25.884;2022-08-18T08:53:20;5.97;;;4.15;;
47523;SDS011;33253;42.144;25.884;2022-08-18T08:55:56;6.43;;;4.43;;
47523;SDS011;33253;42.144;25.884;2022-08-18T08:58:27;5.18;;;4.05;;
47523;SDS011;33253;42.144;25.884;2022-08-18T09:00:54;7.30;;;4.22;;
47523;SDS011;33253;42.144;25.884;2022-08-18T09:19:38;5.53;;;4.25;;
47523;SDS011;33253;42.144;25.884;2022-08-18T09:22:35;6.38;;;4.55;;
47523;SDS011;33253;42.144;25.884;2022-08-18T09:36:02;11.85;;;4.82;;
47523;SDS011;33253;42.144;25.884;2022-08-18T09:38:33;8.23;;;4.47;;
47523;SDS011;33253;42.144;25.884;2022-08-18T09:41:26;8.13;;;4.65;;
47523;SDS011;33253;42.144;25.884;2022-08-18T09:44:02;7.68;;;4.75;;
47523;SDS011;33253;42.144;25.884;2022-08-18T09:54:50;7.28;;;4.68;;
47523;SDS011;33253;42.144;25.884;2022-08-18T09:57:23;10.00;;;4.90;;
47523;SDS011;33253;42.144;25.884;2022-08-18T09:59:52;7.65;;;4.22;;
47523;SDS011;33253;42.144;25.884;2022-08-18T10:26:58;10.98;;;5.60;;
47523;SDS011;33253;42.144;25.884;2022-08-18T10:42:24;7.05;;;3.95;;
47523;SDS011;33253;42.144;25.884;2022-08-18T10:44:55;6.97;;;4.60;;
47523;SDS011;33253;42.144;25.884;2022-08-18T10:47:30;8.82;;;5.00;;
47523;SDS011;33253;42.144;25.884;2022-08-18T10:49:56;7.10;;;4.68;;
47523;SDS011;33253;42.144;25.884;2022-08-18T11:00:28;9.82;;;4.55;;
47523;SDS011;33253;42.144;25.884;2022-08-18T11:06:03;14.05;;;4.43;;
47523;SDS011;33253;42.144;25.884;2022-08-18T11:08:31;7.88;;;4.00;;
47523;SDS011;33253;42.144;25.884;2022-08-18T11:11:06;9.20;;;4.25;;
47523;SDS011;33253;42.144;25.884;2022-08-18T11:19:05;7.00;;;4.40;;
47523;SDS011;33253;42.144;25.884;2022-08-18T11:24:13;5.63;;;4.15;;
47523;SDS011;33253;42.144;25.884;2022-08-18T11:26:45;12.25;;;4.53;;
47523;SDS011;33253;42.144;25.884;2022-08-18T11:29:18;7.75;;;4.20;;
47523;SDS011;33253;42.144;25.884;2022-08-18T11:31:52;6.57;;;4.25;;
47523;SDS011;33253;42.144;25.884;2022-08-18T11:34:34;5.88;;;4.38;;
47523;SDS011;33253;42.144;25.884;2022-08-18T11:37:05;6.03;;;4.28;;
47523;SDS011;33253;42.144;25.884;2022-08-18T11:39:41;7.40;;;5.05;;
47523;SDS011;33253;42.144;25.884;2022-08-18T11:42:13;7.25;;;4.07;;
47523;SDS011;33253;42.144;25.884;2022-08-18T11:44:40;9.80;;;4.75;;
47523;SDS011;33253;42.144;25.884;2022-08-18T11:47:12;6.22;;;4.60;;
47523;SDS011;33253;42.144;25.884;2022-08-18T11:50:04;9.93;;;5.28;;
47523;SDS011;33253;42.144;25.884;2022-08-18T11:52:43;11.88;;;5.10;;
47523;SDS011;33253;42.144;25.884;2022-08-18T11:55:17;9.25;;;5.13;;
47523;SDS011;33253;42.144;25.884;2022-08-18T11:57:52;7.57;;;4.80;;
47523;SDS011;33253;42.144;25.884;2022-08-18T12:00:39;7.80;;;5.05;;
47523;SDS011;33253;42.144;25.884;2022-08-18T12:09:13;9.23;;;5.30;;
47523;SDS011;33253;42.144;25.884;2022-08-18T12:11:56;8.18;;;4.82;;
47523;SDS011;33253;42.144;25.884;2022-08-18T12:14:26;6.80;;;5.00;;
47523;SDS011;33253;42.144;25.884;2022-08-18T12:16:53;6.55;;;5.07;;
47523;SDS011;33253;42.144;25.884;2022-08-18T12:19:19;10.50;;;5.40;;
47523;SDS011;33253;42.144;25.884;2022-08-18T12:21:50;8.85;;;4.88;;
47523;SDS011;33253;42.144;25.884;2022-08-18T12:24:22;10.43;;;5.68;;
47523;SDS011;33253;42.144;25.884;2022-08-18T12:26:49;7.70;;;5.00;;
47523;SDS011;33253;42.144;25.884;2022-08-18T12:29:16;7.90;;;5.30;;
47523;SDS011;33253;42.144;25.884;2022-08-18T12:31:43;7.85;;;4.90;;
47523;SDS011;33253;42.144;25.884;2022-08-18T12:34:09;5.28;;;4.53;;
47523;SDS011;33253;42.144;25.884;2022-08-18T12:36:37;8.70;;;4.93;;
47523;SDS011;33253;42.144;25.884;2022-08-18T12:39:04;8.07;;;5.65;;
47523;SDS011;33253;42.144;25.884;2022-08-18T12:41:30;6.97;;;4.85;;
47523;SDS011;33253;42.144;25.884;2022-08-18T12:43:55;8.77;;;4.90;;
47523;SDS011;33253;42.144;25.884;2022-08-18T12:46:21;7.75;;;5.00;;
47523;SDS011;33253;42.144;25.884;2022-08-18T12:48:47;8.25;;;5.18;;
47523;SDS011;33253;42.144;25.884;2022-08-18T12:51:13;7.28;;;5.38;;
47523;SDS011;33253;42.144;25.884;2022-08-18T12:53:39;8.13;;;5.00;;
47523;SDS011;33253;42.144;25.884;2022-08-18T12:56:20;7.28;;;5.03;;
47523;SDS011;33253;42.144;25.884;2022-08-18T12:58:48;6.60;;;4.68;;
47523;SDS011;33253;42.144;25.884;2022-08-18T13:01:15;6.30;;;4.90;;
47523;SDS011;33253;42.144;25.884;2022-08-18T13:03:42;13.18;;;5.13;;
47523;SDS011;33253;42.144;25.884;2022-08-18T13:06:09;9.52;;;5.25;;
47523;SDS011;33253;42.144;25.884;2022-08-18T13:08:35;7.45;;;4.97;;
47523;SDS011;33253;42.144;25.884;2022-08-18T13:11:01;8.40;;;4.97;;
47523;SDS011;33253;42.144;25.884;2022-08-18T13:13:27;8.98;;;5.00;;
47523;SDS011;33253;42.144;25.884;2022-08-18T13:15:53;7.43;;;4.72;;
47523;SDS011;33253;42.144;25.884;2022-08-18T13:18:19;8.77;;;4.90;;
47523;SDS011;33253;42.144;25.884;2022-08-18T13:20:44;8.07;;;5.43;;
47523;SDS011;33253;42.144;25.884;2022-08-18T13:23:10;7.20;;;5.30;;
47523;SDS011;33253;42.144;25.884;2022-08-18T13:25:35;7.80;;;5.00;;
47523;SDS011;33253;42.144;25.884;2022-08-18T13:28:02;10.32;;;4.75;;
47523;SDS011;33253;42.144;25.884;2022-08-18T13:30:29;6.65;;;4.85;;
47523;SDS011;33253;42.144;25.884;2022-08-18T13:32:55;7.03;;;4.90;;
47523;SDS011;33253;42.144;25.884;2022-08-18T13:35:21;8.32;;;5.03;;
47523;SDS011;33253;42.144;25.884;2022-08-18T13:37:47;7.50;;;5.35;;
47523;SDS011;33253;42.144;25.884;2022-08-18T13:40:12;6.40;;;5.32;;
47523;SDS011;33253;42.144;25.884;2022-08-18T13:42:42;7.85;;;4.97;;
47523;SDS011;33253;42.144;25.884;2022-08-18T13:45:13;6.60;;;4.88;;
47523;SDS011;33253;42.144;25.884;2022-08-18T13:50:08;8.85;;;5.07;;
47523;SDS011;33253;42.144;25.884;2022-08-18T13:52:35;7.60;;;4.70;;
47523;SDS011;33253;42.144;25.884;2022-08-18T13:55:02;9.43;;;4.97;;
47523;SDS011;33253;42.144;25.884;2022-08-18T13:57:29;7.45;;;5.10;;
47523;SDS011;33253;42.144;25.884;2022-08-18T13:59:56;8.50;;;5.10;;
47523;SDS011;33253;42.144;25.884;2022-08-18T14:02:22;7.25;;;4.88;;
47523;SDS011;33253;42.144;25.884;2022-08-18T14:04:47;7.95;;;4.60;;
47523;SDS011;33253;42.144;25.884;2022-08-18T14:07:13;6.82;;;4.90;;
47523;SDS011;33253;42.144;25.884;2022-08-18T14:09:41;8.20;;;5.30;;
47523;SDS011;33253;42.144;25.884;2022-08-18T14:12:11;6.95;;;4.95;;
47523;SDS011;33253;42.144;25.884;2022-08-18T14:14:42;6.32;;;5.18;;
47523;SDS011;33253;42.144;25.884;2022-08-18T14:17:07;8.32;;;5.20;;
47523;SDS011;33253;42.144;25.884;2022-08-18T14:19:33;9.52;;;5.80;;
47523;SDS011;33253;42.144;25.884;2022-08-18T14:22:17;10.57;;;5.05;;
47523;SDS011;33253;42.144;25.884;2022-08-18T14:25:01;9.48;;;4.80;;
47523;SDS011;33253;42.144;25.884;2022-08-18T14:27:45;6.80;;;5.10;;
47523;SDS011;33253;42.144;25.884;2022-08-18T14:30:11;6.55;;;4.82;;
47523;SDS011;33253;42.144;25.884;2022-08-18T14:32:38;7.13;;;5.63;;
47523;SDS011;33253;42.144;25.884;2022-08-18T14:35:05;6.15;;;5.25;;
47523;SDS011;33253;42.144;25.884;2022-08-18T14:37:32;7.73;;;5.07;;
47523;SDS011;33253;42.144;25.884;2022-08-18T14:39:58;7.18;;;5.40;;
47523;SDS011;33253;42.144;25.884;2022-08-18T14:42:23;8.50;;;5.38;;
47523;SDS011;33253;42.144;25.884;2022-08-18T14:44:49;9.30;;;5.00;;
47523;SDS011;33253;42.144;25.884;2022-08-18T14:47:15;8.27;;;5.53;;
47523;SDS011;33253;42.144;25.884;2022-08-18T14:49:41;7.38;;;5.30;;
47523;SDS011;33253;42.144;25.884;2022-08-18T14:52:07;7.93;;;4.85;;
47523;SDS011;33253;42.144;25.884;2022-08-18T14:54:35;7.88;;;5.53;;
47523;SDS011;33253;42.144;25.884;2022-08-18T14:57:01;7.18;;;5.10;;
47523;SDS011;33253;42.144;25.884;2022-08-18T14:59:47;9.45;;;5.53;;
47523;SDS011;33253;42.144;25.884;2022-08-18T15:02:13;6.72;;;5.18;;
47523;SDS011;33253;42.144;25.884;2022-08-18T15:04:39;7.00;;;5.47;;
47523;SDS011;33253;42.144;25.884;2022-08-18T15:07:04;10.38;;;5.95;;
47523;SDS011;33253;42.144;25.884;2022-08-18T15:09:30;10.73;;;5.85;;
47523;SDS011;33253;42.144;25.884;2022-08-18T15:11:57;10.55;;;6.15;;
47523;SDS011;33253;42.144;25.884;2022-08-18T15:14:25;9.00;;;5.40;;
47523;SDS011;33253;42.144;25.884;2022-08-18T15:16:52;8.73;;;5.60;;
47523;SDS011;33253;42.144;25.884;2022-08-18T15:19:18;7.63;;;5.75;;
47523;SDS011;33253;42.144;25.884;2022-08-18T15:21:47;8.55;;;5.72;;
47523;SDS011;33253;42.144;25.884;2022-08-18T15:24:32;7.32;;;5.88;;
47523;SDS011;33253;42.144;25.884;2022-08-18T15:27:15;8.23;;;5.93;;
47523;SDS011;33253;42.144;25.884;2022-08-18T15:29:41;7.57;;;5.78;;
47523;SDS011;33253;42.144;25.884;2022-08-18T15:32:06;7.32;;;6.00;;
47523;SDS011;33253;42.144;25.884;2022-08-18T15:34:33;9.10;;;5.85;;
47523;SDS011;33253;42.144;25.884;2022-08-18T15:36:59;8.63;;;5.55;;
47523;SDS011;33253;42.144;25.884;2022-08-18T15:39:25;6.88;;;5.32;;
47523;SDS011;33253;42.144;25.884;2022-08-18T15:41:51;8.40;;;5.30;;
47523;SDS011;33253;42.144;25.884;2022-08-18T15:44:18;10.93;;;5.60;;
47523;SDS011;33253;42.144;25.884;2022-08-18T15:46:45;11.60;;;5.82;;
47523;SDS011;33253;42.144;25.884;2022-08-18T15:49:12;12.38;;;5.93;;
47523;SDS011;33253;42.144;25.884;2022-08-18T15:51:39;7.13;;;5.35;;
47523;SDS011;33253;42.144;25.884;2022-08-18T15:54:07;13.48;;;5.72;;
47523;SDS011;33253;42.144;25.884;2022-08-18T15:56:33;12.88;;;5.32;;
47523;SDS011;33253;42.144;25.884;2022-08-18T15:59:01;10.73;;;5.65;;
47523;SDS011;33253;42.144;25.884;2022-08-18T16:01:31;12.18;;;5.53;;
47523;SDS011;33253;42.144;25.884;2022-08-18T16:06:27;6.35;;;5.72;;
47523;SDS011;33253;42.144;25.884;2022-08-18T16:08:53;8.13;;;5.90;;
47523;SDS011;33253;42.144;25.884;2022-08-18T16:11:19;9.00;;;5.63;;
47523;SDS011;33253;42.144;25.884;2022-08-18T16:13:46;13.80;;;5.72;;
47523;SDS011;33253;42.144;25.884;2022-08-18T16:16:14;17.13;;;5.67;;
47523;SDS011;33253;42.144;25.884;2022-08-18T16:18:42;14.63;;;6.60;;
47523;SDS011;33253;42.144;25.884;2022-08-18T16:21:10;13.07;;;6.00;;
47523;SDS011;33253;42.144;25.884;2022-08-18T16:23:37;9.25;;;5.70;;
47523;SDS011;33253;42.144;25.884;2022-08-18T16:26:04;8.20;;;6.07;;
47523;SDS011;33253;42.144;25.884;2022-08-18T16:28:31;10.10;;;5.85;;
47523;SDS011;33253;42.144;25.884;2022-08-18T16:30:57;8.07;;;5.80;;
47523;SDS011;33253;42.144;25.884;2022-08-18T16:33:23;9.45;;;6.25;;
47523;SDS011;33253;42.144;25.884;2022-08-18T16:35:49;9.65;;;6.00;;
47523;SDS011;33253;42.144;25.884;2022-08-18T16:38:16;11.80;;;6.55;;
47523;SDS011;33253;42.144;25.884;2022-08-18T16:40:42;9.15;;;6.15;;
47523;SDS011;33253;42.144;25.884;2022-08-18T16:43:08;10.32;;;6.35;;
47523;SDS011;33253;42.144;25.884;2022-08-18T16:45:35;8.25;;;6.50;;
47523;SDS011;33253;42.144;25.884;2022-08-18T16:48:01;8.73;;;6.50;;
47523;SDS011;33253;42.144;25.884;2022-08-18T16:50:27;13.25;;;7.57;;
47523;SDS011;33253;42.144;25.884;2022-08-18T16:52:54;9.82;;;6.93;;
47523;SDS011;33253;42.144;25.884;2022-08-18T16:55:19;10.07;;;6.70;;
47523;SDS011;33253;42.144;25.884;2022-08-18T16:57:45;10.30;;;6.63;;
47523;SDS011;33253;42.144;25.884;2022-08-18T17:00:30;10.48;;;6.90;;
47523;SDS011;33253;42.144;25.884;2022-08-18T17:03:15;10.63;;;7.18;;
47523;SDS011;33253;42.144;25.884;2022-08-18T17:06:13;8.60;;;6.78;;
47523;SDS011;33253;42.144;25.884;2022-08-18T17:08:41;10.65;;;7.20;;
47523;SDS011;33253;42.144;25.884;2022-08-18T17:11:10;8.07;;;6.38;;
47523;SDS011;33253;42.144;25.884;2022-08-18T17:13:38;10.52;;;6.40;;
47523;SDS011;33253;42.144;25.884;2022-08-18T17:16:06;9.57;;;6.60;;
47523;SDS011;33253;42.144;25.884;2022-08-18T17:21:04;12.02;;;7.10;;
47523;SDS011;33253;42.144;25.884;2022-08-18T17:23:33;12.40;;;6.70;;
47523;SDS011;33253;42.144;25.884;2022-08-18T17:25:59;21.98;;;7.30;;
47523;SDS011;33253;42.144;25.884;2022-08-18T17:28:30;12.23;;;7.00;;
47523;SDS011;33253;42.144;25.884;2022-08-18T17:31:03;15.60;;;7.00;;
47523;SDS011;33253;42.144;25.884;2022-08-18T17:33:31;16.17;;;6.85;;
47523;SDS011;33253;42.144;25.884;2022-08-18T17:36:01;14.88;;;7.40;;
47523;SDS011;33253;42.144;25.884;2022-08-18T17:38:42;16.20;;;8.13;;
47523;SDS011;33253;42.144;25.884;2022-08-18T17:41:22;14.48;;;6.97;;
47523;SDS011;33253;42.144;25.884;2022-08-18T17:43:49;17.80;;;7.57;;
47523;SDS011;33253;42.144;25.884;2022-08-18T17:46:23;18.50;;;7.63;;
47523;SDS011;33253;42.144;25.884;2022-08-18T17:48:59;28.80;;;8.20;;
47523;SDS011;33253;42.144;25.884;2022-08-18T17:51:42;21.92;;;7.47;;
47523;SDS011;33253;42.144;25.884;2022-08-18T18:02:23;19.27;;;7.40;;
47523;SDS011;33253;42.144;25.884;2022-08-18T18:04:50;13.00;;;6.93;;
47523;SDS011;33253;42.144;25.884;2022-08-18T18:13:09;18.48;;;7.55;;
47523;SDS011;33253;42.144;25.884;2022-08-18T18:15:59;13.95;;;7.13;;
47523;SDS011;33253;42.144;25.884;2022-08-18T18:18:42;11.35;;;7.75;;
47523;SDS011;33253;42.144;25.884;2022-08-18T18:23:44;16.23;;;7.38;;
47523;SDS011;33253;42.144;25.884;2022-08-18T18:26:19;13.75;;;7.35;;
47523;SDS011;33253;42.144;25.884;2022-08-18T18:31:36;11.93;;;6.75;;
47523;SDS011;33253;42.144;25.884;2022-08-18T18:34:03;13.15;;;6.95;;
47523;SDS011;33253;42.144;25.884;2022-08-18T18:36:43;11.30;;;6.78;;
47523;SDS011;33253;42.144;25.884;2022-08-18T18:39:18;12.45;;;6.80;;
47523;SDS011;33253;42.144;25.884;2022-08-18T18:41:44;13.13;;;6.95;;
47523;SDS011;33253;42.144;25.884;2022-08-18T18:44:10;10.25;;;7.13;;
47523;SDS011;33253;42.144;25.884;2022-08-18T18:46:45;12.60;;;6.68;;
47523;SDS011;33253;42.144;25.884;2022-08-18T18:49:24;13.75;;;6.85;;
47523;SDS011;33253;42.144;25.884;2022-08-18T18:54:26;13.40;;;7.20;;
47523;SDS011;33253;42.144;25.884;2022-08-18T18:56:59;12.20;;;7.15;;
47523;SDS011;33253;42.144;25.884;2022-08-18T19:07:48;11.60;;;7.78;;
47523;SDS011;33253;42.144;25.884;2022-08-18T19:13:30;14.43;;;7.50;;
47523;SDS011;33253;42.144;25.884;2022-08-18T19:16:09;21.88;;;7.50;;
47523;SDS011;33253;42.144;25.884;2022-08-18T19:18:41;14.85;;;6.75;;
47523;SDS011;33253;42.144;25.884;2022-08-18T19:21:14;11.32;;;6.57;;
47523;SDS011;33253;42.144;25.884;2022-08-18T19:23:51;14.45;;;7.03;;
47523;SDS011;33253;42.144;25.884;2022-08-18T19:26:27;10.27;;;7.07;;
47523;SDS011;33253;42.144;25.884;2022-08-18T19:29:05;9.35;;;7.00;;
47523;SDS011;33253;42.144;25.884;2022-08-18T19:31:39;9.55;;;7.00;;
47523;SDS011;33253;42.144;25.884;2022-08-18T19:34:30;10.85;;;6.88;;
47523;SDS011;33253;42.144;25.884;2022-08-18T19:37:01;16.67;;;7.25;;
47523;SDS011;33253;42.144;25.884;2022-08-18T19:39:50;12.77;;;7.30;;
47523;SDS011;33253;42.144;25.884;2022-08-18T19:45:31;12.70;;;6.75;;
47523;SDS011;33253;42.144;25.884;2022-08-18T19:48:15;11.82;;;7.00;;
47523;SDS011;33253;42.144;25.884;2022-08-18T19:50:55;13.45;;;7.20;;
47523;SDS011;33253;42.144;25.884;2022-08-18T19:53:42;9.73;;;6.45;;
47523;SDS011;33253;42.144;25.884;2022-08-18T19:59:01;11.05;;;7.28;;
47523;SDS011;33253;42.144;25.884;2022-08-18T20:10:47;9.52;;;7.30;;
47523;SDS011;33253;42.144;25.884;2022-08-18T20:13:35;12.90;;;6.80;;
47523;SDS011;33253;42.144;25.884;2022-08-18T20:18:46;14.43;;;7.47;;
47523;SDS011;33253;42.144;25.884;2022-08-18T20:29:04;12.05;;;7.40;;
47523;SDS011;33253;42.144;25.884;2022-08-18T20:34:22;11.63;;;7.35;;
47523;SDS011;33253;42.144;25.884;2022-08-18T20:36:50;13.02;;;7.57;;
47523;SDS011;33253;42.144;25.884;2022-08-18T20:42:04;13.15;;;7.15;;
47523;SDS011;33253;42.144;25.884;2022-08-18T20:58:53;12.25;;;7.57;;
47523;SDS011;33253;42.144;25.884;2022-08-18T21:01:26;11.93;;;6.97;;
47523;SDS011;33253;42.144;25.884;2022-08-18T21:03:53;13.38;;;7.43;;
47523;SDS011;33253;42.144;25.884;2022-08-18T21:06:19;9.32;;;6.65;;
47523;SDS011;33253;42.144;25.884;2022-08-18T21:08:49;13.50;;;7.32;;
47523;SDS011;33253;42.144;25.884;2022-08-18T21:14:11;11.30;;;7.80;;
47523;SDS011;33253;42.144;25.884;2022-08-18T21:16:43;9.15;;;7.07;;
47523;SDS011;33253;42.144;25.884;2022-08-18T21:19:10;11.70;;;6.75;;
47523;SDS011;33253;42.144;25.884;2022-08-18T21:21:46;13.20;;;7.55;;
47523;SDS011;33253;42.144;25.884;2022-08-18T21:27:00;8.82;;;7.07;;
47523;SDS011;33253;42.144;25.884;2022-08-18T21:29:28;8.02;;;7.22;;
47523;SDS011;33253;42.144;25.884;2022-08-18T21:32:04;9.98;;;7.15;;
47523;SDS011;33253;42.144;25.884;2022-08-18T21:34:37;7.43;;;6.65;;
47523;SDS011;33253;42.144;25.884;2022-08-18T21:37:06;9.77;;;7.10;;
47523;SDS011;33253;42.144;25.884;2022-08-18T21:39:38;9.07;;;7.38;;
47523;SDS011;33253;42.144;25.884;2022-08-18T21:42:22;9.85;;;7.30;;
47523;SDS011;33253;42.144;25.884;2022-08-18T21:44:50;12.55;;;7.45;;
47523;SDS011;33253;42.144;25.884;2022-08-18T21:47:25;12.10;;;7.40;;
47523;SDS011;33253;42.144;25.884;2022-08-18T21:52:25;12.05;;;7.40;;
47523;SDS011;33253;42.144;25.884;2022-08-18T21:55:00;14.00;;;7.95;;
47523;SDS011;33253;42.144;25.884;2022-08-18T21:57:45;11.93;;;7.72;;
47523;SDS011;33253;42.144;25.884;2022-08-18T22:00:13;14.45;;;7.57;;
47523;SDS011;33253;42.144;25.884;2022-08-18T22:02:49;8.68;;;7.03;;
47523;SDS011;33253;42.144;25.884;2022-08-18T22:05:29;11.05;;;7.40;;
47523;SDS011;33253;42.144;25.884;2022-08-18T22:07:56;10.88;;;7.28;;
47523;SDS011;33253;42.144;25.884;2022-08-18T22:10:27;13.43;;;7.85;;
47523;SDS011;33253;42.144;25.884;2022-08-18T22:13:20;11.82;;;6.90;;
47523;SDS011;33253;42.144;25.884;2022-08-18T22:19:03;13.27;;;7.72;;
47523;SDS011;33253;42.144;25.884;2022-08-18T22:22:00;11.18;;;7.55;;
47523;SDS011;33253;42.144;25.884;2022-08-18T22:24:57;23.05;;;8.13;;
47523;SDS011;33253;42.144;25.884;2022-08-18T22:27:24;19.27;;;8.13;;
47523;SDS011;33253;42.144;25.884;2022-08-18T22:29:54;17.38;;;7.90;;
47523;SDS011;33253;42.144;25.884;2022-08-18T22:32:33;13.20;;;7.68;;
47523;SDS011;33253;42.144;25.884;2022-08-18T22:35:00;14.93;;;8.25;;
47523;SDS011;33253;42.144;25.884;2022-08-18T22:37:29;14.80;;;8.05;;
47523;SDS011;33253;42.144;25.884;2022-08-18T22:40:00;12.07;;;8.15;;
47523;SDS011;33253;42.144;25.884;2022-08-18T22:42:46;14.93;;;8.00;;
47523;SDS011;33253;42.144;25.884;2022-08-18T22:45:14;13.80;;;7.70;;
47523;SDS011;33253;42.144;25.884;2022-08-18T22:47:40;14.77;;;8.10;;
47523;SDS011;33253;42.144;25.884;2022-08-18T22:50:06;12.20;;;8.18;;
47523;SDS011;33253;42.144;25.884;2022-08-18T22:52:34;12.60;;;8.38;;
47523;SDS011;33253;42.144;25.884;2022-08-18T22:55:05;15.77;;;8.20;;
47523;SDS011;33253;42.144;25.884;2022-08-18T22:57:36;11.45;;;8.57;;
47523;SDS011;33253;42.144;25.884;2022-08-18T23:00:06;11.52;;;8.00;;
47523;SDS011;33253;42.144;25.884;2022-08-18T23:02:35;14.57;;;8.57;;
47523;SDS011;33253;42.144;25.884;2022-08-18T23:05:00;14.75;;;7.85;;
47523;SDS011;33253;42.144;25.884;2022-08-18T23:07:27;12.23;;;8.05;;
47523;SDS011;33253;42.144;25.884;2022-08-18T23:09:55;14.93;;;7.95;;
47523;SDS011;33253;42.144;25.884;2022-08-18T23:12:21;11.32;;;8.20;;
47523;SDS011;33253;42.144;25.884;2022-08-18T23:14:47;15.80;;;8.48;;
47523;SDS011;33253;42.144;25.884;2022-08-18T23:17:13;18.58;;;8.55;;
47523;SDS011;33253;42.144;25.884;2022-08-18T23:19:39;12.63;;;8.07;;
47523;SDS011;33253;42.144;25.884;2022-08-18T23:22:07;16.45;;;8.10;;
47523;SDS011;33253;42.144;25.884;2022-08-18T23:24:34;18.38;;;8.50;;
47523;SDS011;33253;42.144;25.884;2022-08-18T23:27:04;14.02;;;7.90;;
47523;SDS011;33253;42.144;25.884;2022-08-18T23:29:30;18.27;;;8.20;;
47523;SDS011;33253;42.144;25.884;2022-08-18T23:31:59;11.02;;;7.90;;
47523;SDS011;33253;42.144;25.884;2022-08-18T23:34:25;13.57;;;8.70;;
47523;SDS011;33253;42.144;25.884;2022-08-18T23:36:53;15.48;;;8.60;;
47523;SDS011;33253;42.144;25.884;2022-08-18T23:39:21;13.57;;;7.97;;
47523;SDS011;33253;42.144;25.884;2022-08-18T23:41:47;15.13;;;8.35;;
47523;SDS011;33253;42.144;25.884;2022-08-18T23:44:15;11.18;;;8.35;;
47523;SDS011;33253;42.144;25.884;2022-08-18T23:46:41;16.92;;;8.38;;
47523;SDS011;33253;42.144;25.884;2022-08-18T23:49:07;9.82;;;7.82;;
47523;SDS011;33253;42.144;25.884;2022-08-18T23:51:38;16.85;;;8.98;;
47523;SDS011;33253;42.144;25.884;2022-08-18T23:54:09;14.90;;;8.77;;
47523;SDS011;33253;42.144;25.884;2022-08-18T23:56:41;16.50;;;8.60;;
47523;SDS011;33253;42.144;25.884;2022-08-18T23:59:08;12.15;;;7.97;;
